sensor_id;sensor_type;location;lat;lon;timestamp;temperature;humidity
72288;SHT31;60221;45.696;16.076;2022-07-18T00:01:01;19.56;59.48
72288;SHT31;60221;45.696;16.076;2022-07-18T00:03:27;19.36;59.95
72288;SHT31;60221;45.696;16.076;2022-07-18T00:05:53;19.23;60.44
72288;SHT31;60221;45.696;16.076;2022-07-18T00:08:20;19.10;60.78
72288;SHT31;60221;45.696;16.076;2022-07-18T00:10:46;18.97;61.03
72288;SHT31;60221;45.696;16.076;2022-07-18T00:13:12;18.87;61.39
72288;SHT31;60221;45.696;16.076;2022-07-18T00:15:38;18.77;61.79
72288;SHT31;60221;45.696;16.076;2022-07-18T00:18:04;18.67;62.01
72288;SHT31;60221;45.696;16.076;2022-07-18T00:20:30;19.70;67.87
72288;SHT31;60221;45.696;16.076;2022-07-18T00:22:56;21.33;66.38
72288;SHT31;60221;45.696;16.076;2022-07-18T00:25:23;22.19;62.35
72288;SHT31;60221;45.696;16.076;2022-07-18T00:27:49;22.59;57.37
72288;SHT31;60221;45.696;16.076;2022-07-18T00:30:15;22.27;55.23
72288;SHT31;60221;45.696;16.076;2022-07-18T00:32:41;21.51;55.01
72288;SHT31;60221;45.696;16.076;2022-07-18T00:35:08;20.93;55.70
72288;SHT31;60221;45.696;16.076;2022-07-18T00:37:35;20.49;56.39
72288;SHT31;60221;45.696;16.076;2022-07-18T00:40:02;20.17;57.09
72288;SHT31;60221;45.696;16.076;2022-07-18T00:42:29;19.96;57.72
72288;SHT31;60221;45.696;16.076;2022-07-18T00:44:56;19.73;58.32
72288;SHT31;60221;45.696;16.076;2022-07-18T00:47:23;19.49;59.01
72288;SHT31;60221;45.696;16.076;2022-07-18T00:49:50;19.28;59.54
72288;SHT31;60221;45.696;16.076;2022-07-18T00:52:17;19.10;60.02
72288;SHT31;60221;45.696;16.076;2022-07-18T00:54:43;18.91;60.47
72288;SHT31;60221;45.696;16.076;2022-07-18T00:57:10;18.78;60.94
72288;SHT31;60221;45.696;16.076;2022-07-18T00:59:39;18.63;61.45
72288;SHT31;60221;45.696;16.076;2022-07-18T01:02:24;18.52;61.73
72288;SHT31;60221;45.696;16.076;2022-07-18T01:04:53;18.42;61.89
72288;SHT31;60221;45.696;16.076;2022-07-18T01:07:19;19.23;64.28
72288;SHT31;60221;45.696;16.076;2022-07-18T01:09:46;20.56;65.65
72288;SHT31;60221;45.696;16.076;2022-07-18T01:12:13;21.56;61.60
72288;SHT31;60221;45.696;16.076;2022-07-18T01:14:40;21.78;58.70
72288;SHT31;60221;45.696;16.076;2022-07-18T01:17:19;21.52;55.91
72288;SHT31;60221;45.696;16.076;2022-07-18T01:19:46;20.79;55.74
72288;SHT31;60221;45.696;16.076;2022-07-18T01:22:16;20.24;56.31
72288;SHT31;60221;45.696;16.076;2022-07-18T01:24:43;19.88;57.03
72288;SHT31;60221;45.696;16.076;2022-07-18T01:27:16;19.60;57.69
72288;SHT31;60221;45.696;16.076;2022-07-18T01:29:44;19.35;58.23
72288;SHT31;60221;45.696;16.076;2022-07-18T01:32:13;19.14;58.91
72288;SHT31;60221;45.696;16.076;2022-07-18T01:34:40;18.94;59.30
72288;SHT31;60221;45.696;16.076;2022-07-18T01:37:08;18.71;59.93
72288;SHT31;60221;45.696;16.076;2022-07-18T01:39:35;18.50;60.14
72288;SHT31;60221;45.696;16.076;2022-07-18T01:42:08;18.32;60.90
72288;SHT31;60221;45.696;16.076;2022-07-18T01:44:36;18.16;61.28
72288;SHT31;60221;45.696;16.076;2022-07-18T01:47:05;18.04;61.67
72288;SHT31;60221;45.696;16.076;2022-07-18T01:49:35;17.84;62.27
72288;SHT31;60221;45.696;16.076;2022-07-18T01:52:01;18.59;65.28
72288;SHT31;60221;45.696;16.076;2022-07-18T01:54:31;19.98;64.80
72288;SHT31;60221;45.696;16.076;2022-07-18T01:57:00;20.69;61.61
72288;SHT31;60221;45.696;16.076;2022-07-18T01:59:27;21.04;59.56
72288;SHT31;60221;45.696;16.076;2022-07-18T02:01:53;20.97;56.43
72288;SHT31;60221;45.696;16.076;2022-07-18T02:04:20;20.25;55.66
72288;SHT31;60221;45.696;16.076;2022-07-18T02:06:48;19.72;56.22
72288;SHT31;60221;45.696;16.076;2022-07-18T02:09:14;19.31;56.98
72288;SHT31;60221;45.696;16.076;2022-07-18T02:11:40;19.00;57.71
72288;SHT31;60221;45.696;16.076;2022-07-18T02:14:06;18.78;58.25
72288;SHT31;60221;45.696;16.076;2022-07-18T02:16:32;18.60;59.06
72288;SHT31;60221;45.696;16.076;2022-07-18T02:18:58;18.45;59.65
72288;SHT31;60221;45.696;16.076;2022-07-18T02:21:24;18.29;60.03
72288;SHT31;60221;45.696;16.076;2022-07-18T02:23:50;18.15;60.43
72288;SHT31;60221;45.696;16.076;2022-07-18T02:26:18;18.02;60.93
72288;SHT31;60221;45.696;16.076;2022-07-18T02:28:44;17.90;61.45
72288;SHT31;60221;45.696;16.076;2022-07-18T02:31:10;17.80;61.85
72288;SHT31;60221;45.696;16.076;2022-07-18T02:33:36;17.71;62.20
72288;SHT31;60221;45.696;16.076;2022-07-18T02:36:03;18.31;64.79
72288;SHT31;60221;45.696;16.076;2022-07-18T02:38:29;19.98;66.99
72288;SHT31;60221;45.696;16.076;2022-07-18T02:40:55;21.09;62.87
72288;SHT31;60221;45.696;16.076;2022-07-18T02:43:21;21.72;58.31
72288;SHT31;60221;45.696;16.076;2022-07-18T02:45:47;21.34;54.27
72288;SHT31;60221;45.696;16.076;2022-07-18T02:48:13;20.51;53.88
72288;SHT31;60221;45.696;16.076;2022-07-18T02:50:39;19.86;54.60
72288;SHT31;60221;45.696;16.076;2022-07-18T02:53:05;19.35;55.61
72288;SHT31;60221;45.696;16.076;2022-07-18T02:55:32;19.00;56.40
72288;SHT31;60221;45.696;16.076;2022-07-18T02:57:58;18.67;56.98
72288;SHT31;60221;45.696;16.076;2022-07-18T03:00:24;18.42;57.96
72288;SHT31;60221;45.696;16.076;2022-07-18T03:02:50;18.12;58.75
72288;SHT31;60221;45.696;16.076;2022-07-18T03:05:16;17.82;59.50
72288;SHT31;60221;45.696;16.076;2022-07-18T03:07:42;17.59;59.86
72288;SHT31;60221;45.696;16.076;2022-07-18T03:10:09;17.39;60.71
72288;SHT31;60221;45.696;16.076;2022-07-18T03:12:36;17.22;61.52
72288;SHT31;60221;45.696;16.076;2022-07-18T03:15:03;17.09;62.07
72288;SHT31;60221;45.696;16.076;2022-07-18T03:17:29;17.78;64.99
72288;SHT31;60221;45.696;16.076;2022-07-18T03:19:55;19.44;66.91
72288;SHT31;60221;45.696;16.076;2022-07-18T03:22:21;20.49;63.37
72288;SHT31;60221;45.696;16.076;2022-07-18T03:24:47;21.01;59.99
72288;SHT31;60221;45.696;16.076;2022-07-18T03:27:13;20.78;55.86
72288;SHT31;60221;45.696;16.076;2022-07-18T03:29:39;19.94;55.22
72288;SHT31;60221;45.696;16.076;2022-07-18T03:32:06;19.23;55.84
72288;SHT31;60221;45.696;16.076;2022-07-18T03:34:32;18.78;56.75
72288;SHT31;60221;45.696;16.076;2022-07-18T03:36:58;18.43;57.98
72288;SHT31;60221;45.696;16.076;2022-07-18T03:39:24;18.16;58.63
72288;SHT31;60221;45.696;16.076;2022-07-18T03:41:51;17.92;59.28
72288;SHT31;60221;45.696;16.076;2022-07-18T03:44:18;17.74;60.12
72288;SHT31;60221;45.696;16.076;2022-07-18T03:46:47;17.59;60.79
72288;SHT31;60221;45.696;16.076;2022-07-18T03:49:13;17.42;61.42
72288;SHT31;60221;45.696;16.076;2022-07-18T03:51:39;17.30;62.29
72288;SHT31;60221;45.696;16.076;2022-07-18T03:54:05;17.94;64.43
72288;SHT31;60221;45.696;16.076;2022-07-18T03:56:31;18.93;64.33
72288;SHT31;60221;45.696;16.076;2022-07-18T03:58:57;19.73;63.06
72288;SHT31;60221;45.696;16.076;2022-07-18T04:01:23;20.45;62.58
72288;SHT31;60221;45.696;16.076;2022-07-18T04:03:49;20.93;59.92
72288;SHT31;60221;45.696;16.076;2022-07-18T04:06:16;20.73;56.23
72288;SHT31;60221;45.696;16.076;2022-07-18T04:08:42;20.08;55.71
72288;SHT31;60221;45.696;16.076;2022-07-18T04:11:08;19.56;56.16
72288;SHT31;60221;45.696;16.076;2022-07-18T04:13:34;19.22;57.05
72288;SHT31;60221;45.696;16.076;2022-07-18T04:16:00;19.01;57.92
72288;SHT31;60221;45.696;16.076;2022-07-18T04:18:26;18.87;58.35
72288;SHT31;60221;45.696;16.076;2022-07-18T04:20:52;18.74;59.18
72288;SHT31;60221;45.696;16.076;2022-07-18T04:23:19;18.67;59.71
72288;SHT31;60221;45.696;16.076;2022-07-18T04:25:45;18.70;60.07
72288;SHT31;60221;45.696;16.076;2022-07-18T04:28:13;18.93;61.45
72288;SHT31;60221;45.696;16.076;2022-07-18T04:30:42;19.35;61.33
72288;SHT31;60221;45.696;16.076;2022-07-18T04:33:10;19.84;60.85
72288;SHT31;60221;45.696;16.076;2022-07-18T04:35:39;20.36;60.51
72288;SHT31;60221;45.696;16.076;2022-07-18T04:38:09;20.86;59.75
72288;SHT31;60221;45.696;16.076;2022-07-18T04:40:37;21.35;59.25
72288;SHT31;60221;45.696;16.076;2022-07-18T04:43:04;21.89;58.41
72288;SHT31;60221;45.696;16.076;2022-07-18T04:45:31;22.40;58.04
72288;SHT31;60221;45.696;16.076;2022-07-18T04:47:57;22.89;57.03
72288;SHT31;60221;45.696;16.076;2022-07-18T04:50:28;23.36;55.14
72288;SHT31;60221;45.696;16.076;2022-07-18T04:52:56;23.80;54.93
72288;SHT31;60221;45.696;16.076;2022-07-18T04:55:25;24.20;54.04
72288;SHT31;60221;45.696;16.076;2022-07-18T04:57:52;24.60;53.41
72288;SHT31;60221;45.696;16.076;2022-07-18T05:00:26;24.97;51.59
72288;SHT31;60221;45.696;16.076;2022-07-18T05:02:53;25.36;51.15
72288;SHT31;60221;45.696;16.076;2022-07-18T05:05:21;25.72;50.07
72288;SHT31;60221;45.696;16.076;2022-07-18T05:07:49;26.08;49.76
72288;SHT31;60221;45.696;16.076;2022-07-18T05:10:19;26.46;48.46
72288;SHT31;60221;45.696;16.076;2022-07-18T05:12:51;26.80;47.71
72288;SHT31;60221;45.696;16.076;2022-07-18T05:15:21;27.15;47.15
72288;SHT31;60221;45.696;16.076;2022-07-18T05:17:47;27.45;46.41
72288;SHT31;60221;45.696;16.076;2022-07-18T05:20:21;27.73;46.11
72288;SHT31;60221;45.696;16.076;2022-07-18T05:22:47;28.04;45.27
72288;SHT31;60221;45.696;16.076;2022-07-18T05:25:15;28.31;44.67
72288;SHT31;60221;45.696;16.076;2022-07-18T05:27:42;28.56;44.57
72288;SHT31;60221;45.696;16.076;2022-07-18T05:30:12;28.83;43.43
72288;SHT31;60221;45.696;16.076;2022-07-18T05:32:41;29.06;42.70
72288;SHT31;60221;45.696;16.076;2022-07-18T05:35:10;29.29;42.00
72288;SHT31;60221;45.696;16.076;2022-07-18T05:37:38;29.54;41.45
72288;SHT31;60221;45.696;16.076;2022-07-18T05:40:08;29.78;40.71
72288;SHT31;60221;45.696;16.076;2022-07-18T05:42:36;29.99;39.75
72288;SHT31;60221;45.696;16.076;2022-07-18T05:45:05;30.08;39.05
72288;SHT31;60221;45.696;16.076;2022-07-18T05:47:31;30.24;38.63
72288;SHT31;60221;45.696;16.076;2022-07-18T05:49:57;30.39;38.95
72288;SHT31;60221;45.696;16.076;2022-07-18T05:52:23;30.54;38.08
72288;SHT31;60221;45.696;16.076;2022-07-18T05:54:49;30.71;37.27
72288;SHT31;60221;45.696;16.076;2022-07-18T05:57:15;30.91;37.01
72288;SHT31;60221;45.696;16.076;2022-07-18T05:59:41;30.94;35.75
72288;SHT31;60221;45.696;16.076;2022-07-18T06:02:08;30.95;35.57
72288;SHT31;60221;45.696;16.076;2022-07-18T06:04:34;30.97;35.47
72288;SHT31;60221;45.696;16.076;2022-07-18T06:07:02;31.05;35.55
72288;SHT31;60221;45.696;16.076;2022-07-18T06:09:28;30.97;35.44
72288;SHT31;60221;45.696;16.076;2022-07-18T06:11:59;31.01;35.19
72288;SHT31;60221;45.696;16.076;2022-07-18T06:14:27;31.15;34.55
72288;SHT31;60221;45.696;16.076;2022-07-18T06:16:54;31.24;34.34
72288;SHT31;60221;45.696;16.076;2022-07-18T06:19:20;31.16;34.42
72288;SHT31;60221;45.696;16.076;2022-07-18T06:21:48;30.95;34.70
72288;SHT31;60221;45.696;16.076;2022-07-18T06:24:14;30.92;34.58
72288;SHT31;60221;45.696;16.076;2022-07-18T06:26:40;31.03;34.17
72288;SHT31;60221;45.696;16.076;2022-07-18T06:29:06;31.18;34.14
72288;SHT31;60221;45.696;16.076;2022-07-18T06:31:33;31.22;33.83
72288;SHT31;60221;45.696;16.076;2022-07-18T06:33:59;31.32;33.44
72288;SHT31;60221;45.696;16.076;2022-07-18T06:36:24;31.45;33.72
72288;SHT31;60221;45.696;16.076;2022-07-18T06:38:51;31.35;33.55
72288;SHT31;60221;45.696;16.076;2022-07-18T06:41:19;31.29;33.97
72288;SHT31;60221;45.696;16.076;2022-07-18T06:43:45;31.35;33.61
72288;SHT31;60221;45.696;16.076;2022-07-18T06:46:12;31.47;33.94
72288;SHT31;60221;45.696;16.076;2022-07-18T06:48:38;31.54;33.39
72288;SHT31;60221;45.696;16.076;2022-07-18T06:51:06;31.67;33.30
72288;SHT31;60221;45.696;16.076;2022-07-18T06:53:34;31.79;32.55
72288;SHT31;60221;45.696;16.076;2022-07-18T06:56:00;31.85;30.79
72288;SHT31;60221;45.696;16.076;2022-07-18T06:58:29;31.90;31.14
72288;SHT31;60221;45.696;16.076;2022-07-18T07:00:59;32.04;30.44
72288;SHT31;60221;45.696;16.076;2022-07-18T07:03:25;32.17;30.77
72288;SHT31;60221;45.696;16.076;2022-07-18T07:05:52;32.21;29.83
72288;SHT31;60221;45.696;16.076;2022-07-18T07:08:18;32.25;29.86
72288;SHT31;60221;45.696;16.076;2022-07-18T07:10:44;32.27;28.80
72288;SHT31;60221;45.696;16.076;2022-07-18T07:13:10;32.35;28.95
72288;SHT31;60221;45.696;16.076;2022-07-18T07:15:36;32.35;28.60
72288;SHT31;60221;45.696;16.076;2022-07-18T07:18:04;32.32;28.40
72288;SHT31;60221;45.696;16.076;2022-07-18T07:20:30;32.34;28.40
72288;SHT31;60221;45.696;16.076;2022-07-18T07:22:57;32.32;28.76
72288;SHT31;60221;45.696;16.076;2022-07-18T07:25:25;32.25;27.56
72288;SHT31;60221;45.696;16.076;2022-07-18T07:27:53;32.17;28.43
72288;SHT31;60221;45.696;16.076;2022-07-18T07:30:20;32.21;28.91
72288;SHT31;60221;45.696;16.076;2022-07-18T07:32:47;32.17;27.78
72288;SHT31;60221;45.696;16.076;2022-07-18T07:35:16;32.11;28.24
72288;SHT31;60221;45.696;16.076;2022-07-18T07:37:50;32.04;28.00
72288;SHT31;60221;45.696;16.076;2022-07-18T07:40:17;32.00;28.83
72288;SHT31;60221;45.696;16.076;2022-07-18T07:42:44;31.94;28.68
72288;SHT31;60221;45.696;16.076;2022-07-18T07:45:12;31.92;28.40
72288;SHT31;60221;45.696;16.076;2022-07-18T07:47:39;31.92;28.52
72288;SHT31;60221;45.696;16.076;2022-07-18T07:50:08;31.83;28.96
72288;SHT31;60221;45.696;16.076;2022-07-18T07:52:35;31.74;29.10
72288;SHT31;60221;45.696;16.076;2022-07-18T07:55:03;31.77;28.69
72288;SHT31;60221;45.696;16.076;2022-07-18T07:57:29;31.74;28.07
72288;SHT31;60221;45.696;16.076;2022-07-18T07:59:56;31.71;27.83
72288;SHT31;60221;45.696;16.076;2022-07-18T08:02:22;31.57;28.72
72288;SHT31;60221;45.696;16.076;2022-07-18T08:04:48;31.49;27.99
72288;SHT31;60221;45.696;16.076;2022-07-18T08:07:16;31.49;27.25
72288;SHT31;60221;45.696;16.076;2022-07-18T08:09:42;31.39;27.05
72288;SHT31;60221;45.696;16.076;2022-07-18T08:12:08;31.30;26.28
72288;SHT31;60221;45.696;16.076;2022-07-18T08:14:34;31.25;27.16
72288;SHT31;60221;45.696;16.076;2022-07-18T08:17:02;31.26;27.00
72288;SHT31;60221;45.696;16.076;2022-07-18T08:19:28;31.25;27.25
72288;SHT31;60221;45.696;16.076;2022-07-18T08:21:54;31.14;26.73
72288;SHT31;60221;45.696;16.076;2022-07-18T08:24:21;31.02;27.13
72288;SHT31;60221;45.696;16.076;2022-07-18T08:26:47;30.88;27.60
72288;SHT31;60221;45.696;16.076;2022-07-18T08:29:13;30.88;27.94
72288;SHT31;60221;45.696;16.076;2022-07-18T08:31:39;30.82;28.37
72288;SHT31;60221;45.696;16.076;2022-07-18T08:34:05;30.82;28.58
72288;SHT31;60221;45.696;16.076;2022-07-18T08:36:31;30.82;28.14
72288;SHT31;60221;45.696;16.076;2022-07-18T08:38:57;30.77;27.68
72288;SHT31;60221;45.696;16.076;2022-07-18T08:41:24;30.75;27.73
72288;SHT31;60221;45.696;16.076;2022-07-18T08:43:50;30.77;27.95
72288;SHT31;60221;45.696;16.076;2022-07-18T08:46:20;30.77;27.57
72288;SHT31;60221;45.696;16.076;2022-07-18T08:48:50;30.77;28.37
72288;SHT31;60221;45.696;16.076;2022-07-18T08:51:18;30.88;28.02
72288;SHT31;60221;45.696;16.076;2022-07-18T08:53:52;30.98;27.33
72288;SHT31;60221;45.696;16.076;2022-07-18T08:56:24;30.92;27.23
72288;SHT31;60221;45.696;16.076;2022-07-18T08:58:52;30.82;27.20
72288;SHT31;60221;45.696;16.076;2022-07-18T09:01:18;30.75;27.36
72288;SHT31;60221;45.696;16.076;2022-07-18T09:03:44;30.78;27.32
72288;SHT31;60221;45.696;16.076;2022-07-18T09:06:13;30.81;27.56
72288;SHT31;60221;45.696;16.076;2022-07-18T09:08:59;30.87;26.99
72288;SHT31;60221;45.696;16.076;2022-07-18T09:11:26;30.91;26.14
72288;SHT31;60221;45.696;16.076;2022-07-18T09:13:52;30.95;26.11
72288;SHT31;60221;45.696;16.076;2022-07-18T09:16:20;30.98;26.66
72288;SHT31;60221;45.696;16.076;2022-07-18T09:18:48;31.02;26.68
72288;SHT31;60221;45.696;16.076;2022-07-18T09:21:19;31.01;26.19
72288;SHT31;60221;45.696;16.076;2022-07-18T09:23:50;30.85;26.13
72288;SHT31;60221;45.696;16.076;2022-07-18T09:26:40;30.77;26.69
72288;SHT31;60221;45.696;16.076;2022-07-18T09:29:08;30.74;26.96
72288;SHT31;60221;45.696;16.076;2022-07-18T09:31:35;30.77;26.94
72288;SHT31;60221;45.696;16.076;2022-07-18T09:34:04;30.73;26.67
72288;SHT31;60221;45.696;16.076;2022-07-18T09:36:31;30.57;27.56
72288;SHT31;60221;45.696;16.076;2022-07-18T09:38:59;30.48;27.41
72288;SHT31;60221;45.696;16.076;2022-07-18T09:41:29;30.47;27.83
72288;SHT31;60221;45.696;16.076;2022-07-18T09:43:56;30.56;27.99
72288;SHT31;60221;45.696;16.076;2022-07-18T09:46:22;30.64;27.78
72288;SHT31;60221;45.696;16.076;2022-07-18T09:49:07;30.67;27.50
72288;SHT31;60221;45.696;16.076;2022-07-18T09:51:33;30.66;27.19
72288;SHT31;60221;45.696;16.076;2022-07-18T09:54:00;30.67;27.45
72288;SHT31;60221;45.696;16.076;2022-07-18T09:56:30;30.66;27.83
72288;SHT31;60221;45.696;16.076;2022-07-18T09:58:59;30.64;27.96
72288;SHT31;60221;45.696;16.076;2022-07-18T10:01:26;30.64;27.65
72288;SHT31;60221;45.696;16.076;2022-07-18T10:03:53;30.53;27.48
72288;SHT31;60221;45.696;16.076;2022-07-18T10:06:20;30.44;27.94
72288;SHT31;60221;45.696;16.076;2022-07-18T10:08:47;30.48;28.05
72288;SHT31;60221;45.696;16.076;2022-07-18T10:11:13;30.53;27.69
72288;SHT31;60221;45.696;16.076;2022-07-18T10:13:39;30.48;27.66
72288;SHT31;60221;45.696;16.076;2022-07-18T10:16:06;30.47;27.48
72288;SHT31;60221;45.696;16.076;2022-07-18T10:18:35;30.47;28.00
72288;SHT31;60221;45.696;16.076;2022-07-18T10:21:11;30.53;27.48
72288;SHT31;60221;45.696;16.076;2022-07-18T10:23:47;30.51;27.18
72288;SHT31;60221;45.696;16.076;2022-07-18T10:26:25;30.48;27.22
72288;SHT31;60221;45.696;16.076;2022-07-18T10:31:39;30.47;27.08
72288;SHT31;60221;45.696;16.076;2022-07-18T10:34:11;30.40;27.59
72288;SHT31;60221;45.696;16.076;2022-07-18T10:39:20;30.33;26.98
72288;SHT31;60221;45.696;16.076;2022-07-18T10:47:16;30.08;26.96
72288;SHT31;60221;45.696;16.076;2022-07-18T10:55:25;29.98;26.62
72288;SHT31;60221;45.696;16.076;2022-07-18T11:00:37;30.20;26.96
72288;SHT31;60221;45.696;16.076;2022-07-18T11:03:10;30.29;26.70
72288;SHT31;60221;45.696;16.076;2022-07-18T11:05:50;30.39;26.56
72288;SHT31;60221;45.696;16.076;2022-07-18T11:08:36;30.37;26.48
72288;SHT31;60221;45.696;16.076;2022-07-18T11:11:06;30.36;26.49
72288;SHT31;60221;45.696;16.076;2022-07-18T11:13:38;30.34;26.21
72288;SHT31;60221;45.696;16.076;2022-07-18T11:16:24;30.34;26.16
72288;SHT31;60221;45.696;16.076;2022-07-18T11:21:34;30.47;26.26
72288;SHT31;60221;45.696;16.076;2022-07-18T11:24:04;30.40;26.77
72288;SHT31;60221;45.696;16.076;2022-07-18T11:26:38;30.39;26.10
72288;SHT31;60221;45.696;16.076;2022-07-18T11:29:11;30.46;26.13
72288;SHT31;60221;45.696;16.076;2022-07-18T11:31:47;30.51;26.28
72288;SHT31;60221;45.696;16.076;2022-07-18T11:34:16;30.51;26.40
72288;SHT31;60221;45.696;16.076;2022-07-18T11:36:45;30.48;26.45
72288;SHT31;60221;45.696;16.076;2022-07-18T11:39:13;30.46;26.13
72288;SHT31;60221;45.696;16.076;2022-07-18T11:41:41;30.44;26.52
72288;SHT31;60221;45.696;16.076;2022-07-18T11:44:19;30.44;25.86
72288;SHT31;60221;45.696;16.076;2022-07-18T11:47:11;30.51;26.25
72288;SHT31;60221;45.696;16.076;2022-07-18T11:49:39;30.59;26.36
72288;SHT31;60221;45.696;16.076;2022-07-18T11:52:07;30.61;26.81
72288;SHT31;60221;45.696;16.076;2022-07-18T11:54:34;30.73;26.90
72288;SHT31;60221;45.696;16.076;2022-07-18T11:57:01;30.85;26.88
72288;SHT31;60221;45.696;16.076;2022-07-18T11:59:39;30.95;26.05
72288;SHT31;60221;45.696;16.076;2022-07-18T12:02:08;30.95;26.40
72288;SHT31;60221;45.696;16.076;2022-07-18T12:04:36;30.98;26.07
72288;SHT31;60221;45.696;16.076;2022-07-18T12:07:18;30.94;25.91
72288;SHT31;60221;45.696;16.076;2022-07-18T12:09:47;30.88;26.18
72288;SHT31;60221;45.696;16.076;2022-07-18T12:12:17;30.89;26.31
72288;SHT31;60221;45.696;16.076;2022-07-18T12:15:03;30.94;26.38
72288;SHT31;60221;45.696;16.076;2022-07-18T12:17:30;30.98;26.10
72288;SHT31;60221;45.696;16.076;2022-07-18T12:20:16;30.99;26.68
72288;SHT31;60221;45.696;16.076;2022-07-18T12:23:10;31.02;26.19
72288;SHT31;60221;45.696;16.076;2022-07-18T12:25:38;31.05;26.49
72288;SHT31;60221;45.696;16.076;2022-07-18T12:28:17;31.12;26.35
72288;SHT31;60221;45.696;16.076;2022-07-18T12:30:44;31.22;25.55
72288;SHT31;60221;45.696;16.076;2022-07-18T12:33:11;31.25;25.64
72288;SHT31;60221;45.696;16.076;2022-07-18T12:35:39;31.25;25.61
72288;SHT31;60221;45.696;16.076;2022-07-18T12:38:16;31.26;25.83
72288;SHT31;60221;45.696;16.076;2022-07-18T12:40:50;31.18;26.24
72288;SHT31;60221;45.696;16.076;2022-07-18T12:43:37;31.15;26.21
72288;SHT31;60221;45.696;16.076;2022-07-18T12:46:07;31.15;26.51
72288;SHT31;60221;45.696;16.076;2022-07-18T12:48:35;31.21;26.53
72288;SHT31;60221;45.696;16.076;2022-07-18T12:51:08;31.26;26.59
72288;SHT31;60221;45.696;16.076;2022-07-18T12:53:39;31.36;26.69
72288;SHT31;60221;45.696;16.076;2022-07-18T12:56:06;31.42;26.75
72288;SHT31;60221;45.696;16.076;2022-07-18T12:58:34;31.53;26.51
72288;SHT31;60221;45.696;16.076;2022-07-18T13:01:00;31.62;26.08
72288;SHT31;60221;45.696;16.076;2022-07-18T13:03:27;31.67;24.93
72288;SHT31;60221;45.696;16.076;2022-07-18T13:05:53;31.67;24.75
72288;SHT31;60221;45.696;16.076;2022-07-18T13:08:19;31.66;25.00
72288;SHT31;60221;45.696;16.076;2022-07-18T13:10:45;31.66;25.30
72288;SHT31;60221;45.696;16.076;2022-07-18T13:13:12;31.63;25.07
72288;SHT31;60221;45.696;16.076;2022-07-18T13:15:39;31.56;25.64
72288;SHT31;60221;45.696;16.076;2022-07-18T13:18:06;31.56;25.50
72288;SHT31;60221;45.696;16.076;2022-07-18T13:20:32;31.52;25.22
72288;SHT31;60221;45.696;16.076;2022-07-18T13:22:59;31.47;24.68
72288;SHT31;60221;45.696;16.076;2022-07-18T13:25:27;31.45;24.84
72288;SHT31;60221;45.696;16.076;2022-07-18T13:27:54;31.47;25.29
72288;SHT31;60221;45.696;16.076;2022-07-18T13:30:20;31.53;25.39
72288;SHT31;60221;45.696;16.076;2022-07-18T13:32:47;31.59;25.47
72288;SHT31;60221;45.696;16.076;2022-07-18T13:35:14;31.70;25.43
72288;SHT31;60221;45.696;16.076;2022-07-18T13:37:40;31.80;25.15
72288;SHT31;60221;45.696;16.076;2022-07-18T13:40:09;31.85;23.31
72288;SHT31;60221;45.696;16.076;2022-07-18T13:42:37;31.84;23.25
72288;SHT31;60221;45.696;16.076;2022-07-18T13:45:05;31.77;23.17
72288;SHT31;60221;45.696;16.076;2022-07-18T13:47:32;31.67;22.26
72288;SHT31;60221;45.696;16.076;2022-07-18T13:49:58;31.59;22.46
72288;SHT31;60221;45.696;16.076;2022-07-18T13:52:24;31.50;21.91
72288;SHT31;60221;45.696;16.076;2022-07-18T13:54:50;31.49;22.39
72288;SHT31;60221;45.696;16.076;2022-07-18T13:57:19;31.53;22.00
72288;SHT31;60221;45.696;16.076;2022-07-18T13:59:45;31.54;22.31
72288;SHT31;60221;45.696;16.076;2022-07-18T14:02:11;31.56;22.52
72288;SHT31;60221;45.696;16.076;2022-07-18T14:04:37;31.52;22.56
72288;SHT31;60221;45.696;16.076;2022-07-18T14:07:03;31.43;22.60
72288;SHT31;60221;45.696;16.076;2022-07-18T14:09:31;31.35;22.44
72288;SHT31;60221;45.696;16.076;2022-07-18T14:11:57;31.29;22.61
72288;SHT31;60221;45.696;16.076;2022-07-18T14:14:23;31.28;22.41
72288;SHT31;60221;45.696;16.076;2022-07-18T14:16:49;31.22;22.88
72288;SHT31;60221;45.696;16.076;2022-07-18T14:19:17;31.21;22.76
72288;SHT31;60221;45.696;16.076;2022-07-18T14:21:46;31.24;22.22
72288;SHT31;60221;45.696;16.076;2022-07-18T14:24:12;31.19;22.46
72288;SHT31;60221;45.696;16.076;2022-07-18T14:26:38;31.15;22.37
72288;SHT31;60221;45.696;16.076;2022-07-18T14:29:06;31.08;21.67
72288;SHT31;60221;45.696;16.076;2022-07-18T14:31:32;31.07;22.61
72288;SHT31;60221;45.696;16.076;2022-07-18T14:33:58;31.05;22.44
72288;SHT31;60221;45.696;16.076;2022-07-18T14:36:24;31.02;22.61
72288;SHT31;60221;45.696;16.076;2022-07-18T14:38:50;30.97;22.95
72288;SHT31;60221;45.696;16.076;2022-07-18T14:41:16;30.94;22.81
72288;SHT31;60221;45.696;16.076;2022-07-18T14:43:42;30.91;22.71
72288;SHT31;60221;45.696;16.076;2022-07-18T14:46:08;30.85;22.80
72288;SHT31;60221;45.696;16.076;2022-07-18T14:48:34;30.82;22.72
72288;SHT31;60221;45.696;16.076;2022-07-18T14:51:00;30.80;22.30
72288;SHT31;60221;45.696;16.076;2022-07-18T14:53:27;30.71;22.16
72288;SHT31;60221;45.696;16.076;2022-07-18T14:55:53;30.69;22.40
72288;SHT31;60221;45.696;16.076;2022-07-18T14:58:19;30.70;22.25
72288;SHT31;60221;45.696;16.076;2022-07-18T15:00:45;30.67;22.50
72288;SHT31;60221;45.696;16.076;2022-07-18T15:03:12;30.61;22.76
72288;SHT31;60221;45.696;16.076;2022-07-18T15:05:38;30.61;23.10
72288;SHT31;60221;45.696;16.076;2022-07-18T15:08:04;30.63;23.24
72288;SHT31;60221;45.696;16.076;2022-07-18T15:10:30;30.59;23.05
72288;SHT31;60221;45.696;16.076;2022-07-18T15:12:56;30.56;22.77
72288;SHT31;60221;45.696;16.076;2022-07-18T15:15:23;30.54;23.01
72288;SHT31;60221;45.696;16.076;2022-07-18T15:17:50;30.47;22.92
72288;SHT31;60221;45.696;16.076;2022-07-18T15:20:16;30.44;23.00
72288;SHT31;60221;45.696;16.076;2022-07-18T15:22:44;30.37;23.24
72288;SHT31;60221;45.696;16.076;2022-07-18T15:25:10;30.39;23.14
72288;SHT31;60221;45.696;16.076;2022-07-18T15:27:36;30.37;22.91
72288;SHT31;60221;45.696;16.076;2022-07-18T15:30:05;30.32;22.85
72288;SHT31;60221;45.696;16.076;2022-07-18T15:32:32;30.26;22.61
72288;SHT31;60221;45.696;16.076;2022-07-18T15:34:58;30.23;22.79
72288;SHT31;60221;45.696;16.076;2022-07-18T15:37:24;30.15;23.05
72288;SHT31;60221;45.696;16.076;2022-07-18T15:39:50;30.09;23.14
72288;SHT31;60221;45.696;16.076;2022-07-18T15:42:16;30.04;23.32